createdAt,value
2019-04-23T19:37:44.280Z,25.70
2019-04-23T19:40:28.439Z,25.91
2019-04-23T19:43:27.879Z,25.59
2019-04-23T19:46:00.659Z,25.86
2019-04-23T19:48:54.443Z,25.87
2019-04-23T19:51:33.741Z,26.00
2019-04-23T19:54:35.915Z,26.13
2019-04-23T19:57:22.213Z,26.15
2019-04-23T19:59:58.169Z,26.27
2019-04-23T20:03:01.736Z,26.44
2019-04-23T20:05:41.420Z,26.10
2019-04-23T20:08:38.350Z,26.05
2019-04-23T20:11:09.592Z,26.21
2019-04-23T20:17:04.425Z,26.59
2019-04-23T20:19:37.690Z,26.59
2019-04-23T20:28:17.285Z,26.11
2019-04-23T20:31:16.398Z,26.11
2019-04-23T20:31:54.550Z,26.50
2019-04-23T20:36:46.544Z,26.39
2019-04-23T20:39:41.977Z,26.49
2019-04-23T20:45:04.838Z,26.53
2019-04-23T20:48:01.953Z,26.77
2019-04-23T20:50:42.494Z,26.77
2019-04-23T20:53:35.785Z,26.69
2019-04-23T20:56:25.369Z,26.61
2019-04-23T20:59:15.823Z,26.54
2019-04-23T21:02:26.958Z,26.54
2019-04-23T21:05:10.445Z,26.63
2019-04-23T21:07:57.580Z,26.63
2019-04-23T21:10:36.963Z,26.77
2019-04-23T21:13:41.438Z,26.83
2019-04-23T21:16:14.989Z,27.11
2019-04-23T21:18:57.247Z,27.11
2019-04-23T21:22:09.536Z,27.15
2019-04-23T21:28:00.636Z,26.94
2019-04-23T21:30:55.392Z,27.18
2019-04-23T21:33:25.935Z,27.26
2019-04-23T21:39:28.349Z,27.43
2019-04-23T21:42:07.479Z,27.39
2019-04-23T21:44:57.538Z,27.38
2019-04-23T21:47:57.898Z,27.44
2019-04-23T21:50:53.276Z,27.60
2019-04-23T21:53:25.162Z,28.16
2019-04-23T21:56:15.483Z,28.16
2019-04-23T22:01:54.132Z,28.13
2019-04-23T22:04:39.960Z,28.19
2019-04-23T22:07:38.889Z,28.25
2019-04-23T22:10:18.217Z,28.23
2019-04-23T22:18:48.462Z,28.73
2019-04-23T22:21:34.617Z,28.62
2019-04-23T22:26:58.105Z,29.00
2019-04-23T22:29:49.211Z,29.25
2019-04-23T22:32:54.159Z,29.37
2019-04-23T22:35:30.161Z,29.50
2019-04-23T22:41:05.083Z,29.66
2019-04-23T22:43:59.382Z,29.87
2019-04-23T22:49:38.929Z,30.10
2019-04-23T22:52:21.688Z,30.24
2019-04-23T22:55:07.742Z,30.29
2019-04-23T23:01:15.896Z,30.48
2019-04-23T23:04:00.122Z,30.55
2019-04-23T23:09:43.502Z,30.62
2019-04-23T23:12:33.641Z,30.79
2019-04-23T23:15:16.070Z,30.81
2019-04-23T23:20:55.548Z,30.97
2019-04-23T23:23:40.855Z,31.25
2019-04-23T23:26:37.507Z,31.32
2019-04-23T23:29:17.064Z,31.27
2019-04-23T23:32:11.178Z,31.45
2019-04-23T23:35:11.302Z,31.53
2019-04-23T23:37:43.491Z,31.48
2019-04-23T23:40:25.562Z,31.60
2019-04-23T23:46:16.955Z,31.79
2019-04-23T23:48:49.850Z,31.95
2019-04-23T23:51:40.303Z,31.77
2019-04-23T23:54:18.207Z,31.84
